sensor_id;sensor_type;location;lat;lon;timestamp;pressure;altitude;pressure_sealevel;temperature;humidity
13312;BME280;34033;48.672;9.376;2023-03-01T00:01:28;99310.44;;;2.84;57.78
13312;BME280;34033;48.672;9.376;2023-03-01T00:03:54;99304.41;;;2.82;58.83
13312;BME280;34033;48.672;9.376;2023-03-01T00:06:21;99303.13;;;2.79;57.16
13312;BME280;34033;48.672;9.376;2023-03-01T00:08:47;99304.03;;;2.66;57.28
13312;BME280;34033;48.672;9.376;2023-03-01T00:11:18;99306.75;;;2.58;57.71
13312;BME280;34033;48.672;9.376;2023-03-01T00:13:45;99303.81;;;2.54;57.61
13312;BME280;34033;48.672;9.376;2023-03-01T00:16:16;99310.38;;;2.36;58.71
13312;BME280;34033;48.672;9.376;2023-03-01T00:18:42;99311.06;;;2.41;58.76
13312;BME280;34033;48.672;9.376;2023-03-01T00:21:07;99311.06;;;2.41;59.12
13312;BME280;34033;48.672;9.376;2023-03-01T00:23:37;99314.00;;;2.45;60.39
13312;BME280;34033;48.672;9.376;2023-03-01T00:26:06;99304.97;;;2.53;59.97
13312;BME280;34033;48.672;9.376;2023-03-01T00:28:32;99303.81;;;2.54;60.13
13312;BME280;34033;48.672;9.376;2023-03-01T00:31:06;99306.75;;;2.58;60.62
13312;BME280;34033;48.672;9.376;2023-03-01T00:33:32;99301.25;;;2.58;57.98
13312;BME280;34033;48.672;9.376;2023-03-01T00:35:58;99302.81;;;2.50;58.17
13312;BME280;34033;48.672;9.376;2023-03-01T00:38:24;99300.50;;;2.43;57.66
13312;BME280;34033;48.672;9.376;2023-03-01T00:40:49;99293.72;;;2.19;58.67
13312;BME280;34033;48.672;9.376;2023-03-01T00:43:14;99296.38;;;2.10;59.20
13312;BME280;34033;48.672;9.376;2023-03-01T00:45:39;99293.28;;;2.03;59.80
13312;BME280;34033;48.672;9.376;2023-03-01T00:48:05;99293.16;;;2.08;60.56
13312;BME280;34033;48.672;9.376;2023-03-01T00:50:30;99295.78;;;2.13;59.21
13312;BME280;34033;48.672;9.376;2023-03-01T00:52:56;99296.09;;;2.12;59.83
13312;BME280;34033;48.672;9.376;2023-03-01T00:55:22;99304.53;;;2.15;60.68
13312;BME280;34033;48.672;9.376;2023-03-01T00:57:47;99297.06;;;2.16;61.25
13312;BME280;34033;48.672;9.376;2023-03-01T01:00:13;99288.66;;;2.21;60.60
13312;BME280;34033;48.672;9.376;2023-03-01T01:02:38;99293.28;;;2.25;59.96
13312;BME280;34033;48.672;9.376;2023-03-01T01:05:04;99289.69;;;2.25;58.63
13312;BME280;34033;48.672;9.376;2023-03-01T01:07:30;99283.84;;;2.26;58.66
13312;BME280;34033;48.672;9.376;2023-03-01T01:09:55;99292.06;;;2.18;58.31
13312;BME280;34033;48.672;9.376;2023-03-01T01:12:21;99281.69;;;2.15;58.44
13312;BME280;34033;48.672;9.376;2023-03-01T01:14:46;99290.25;;;2.13;58.89
13312;BME280;34033;48.672;9.376;2023-03-01T01:17:11;99279.22;;;2.13;59.32
13312;BME280;34033;48.672;9.376;2023-03-01T01:19:37;99282.28;;;2.12;58.17
13312;BME280;34033;48.672;9.376;2023-03-01T01:22:02;99277.41;;;2.08;58.12
13312;BME280;34033;48.672;9.376;2023-03-01T01:24:28;99277.22;;;2.05;58.60
13312;BME280;34033;48.672;9.376;2023-03-01T01:26:54;99277.22;;;2.05;59.71
13312;BME280;34033;48.672;9.376;2023-03-01T01:29:19;99277.22;;;2.05;59.23
13312;BME280;34033;48.672;9.376;2023-03-01T01:31:44;99271.41;;;2.06;60.45
13312;BME280;34033;48.672;9.376;2023-03-01T01:34:15;99265.88;;;2.06;59.71
13312;BME280;34033;48.672;9.376;2023-03-01T01:36:41;99260.06;;;2.08;60.63
13312;BME280;34033;48.672;9.376;2023-03-01T01:39:06;99265.75;;;2.12;60.17
13312;BME280;34033;48.672;9.376;2023-03-01T01:41:33;99260.41;;;2.15;60.91
13312;BME280;34033;48.672;9.376;2023-03-01T01:44:21;99257.53;;;2.20;59.38
13312;BME280;34033;48.672;9.376;2023-03-01T01:52:13;99254.00;;;2.28;61.10
13312;BME280;34033;48.672;9.376;2023-03-01T01:57:24;99259.06;;;2.35;59.38
13312;BME280;34033;48.672;9.376;2023-03-01T01:59:54;99251.63;;;2.35;59.47
13312;BME280;34033;48.672;9.376;2023-03-01T02:02:22;99257.59;;;2.37;60.11
13312;BME280;34033;48.672;9.376;2023-03-01T02:04:49;99247.38;;;2.38;59.61
13312;BME280;34033;48.672;9.376;2023-03-01T02:07:20;99239.63;;;2.40;59.92
13312;BME280;34033;48.672;9.376;2023-03-01T02:09:49;99242.53;;;2.43;60.69
13312;BME280;34033;48.672;9.376;2023-03-01T02:12:19;99236.72;;;2.45;60.68
13312;BME280;34033;48.672;9.376;2023-03-01T02:14:45;99234.47;;;2.47;61.15
13312;BME280;34033;48.672;9.376;2023-03-01T02:17:12;99225.22;;;2.51;59.77
13312;BME280;34033;48.672;9.376;2023-03-01T02:20:03;99223.28;;;2.52;61.04
13312;BME280;34033;48.672;9.376;2023-03-01T02:22:33;99223.75;;;2.54;59.84
13312;BME280;34033;48.672;9.376;2023-03-01T02:27:51;99216.81;;;2.57;60.21
13312;BME280;34033;48.672;9.376;2023-03-01T02:30:21;99222.41;;;2.43;59.93
13312;BME280;34033;48.672;9.376;2023-03-01T02:32:47;99207.69;;;2.47;60.82
13312;BME280;34033;48.672;9.376;2023-03-01T02:35:15;99201.19;;;2.52;60.83
13312;BME280;34033;48.672;9.376;2023-03-01T02:37:42;99201.38;;;2.56;61.34
13312;BME280;34033;48.672;9.376;2023-03-01T02:40:13;99205.09;;;2.60;60.90
13312;BME280;34033;48.672;9.376;2023-03-01T02:42:47;99199.78;;;2.63;60.89
13312;BME280;34033;48.672;9.376;2023-03-01T02:45:13;99204.97;;;2.65;60.88
13312;BME280;34033;48.672;9.376;2023-03-01T02:47:39;99191.34;;;2.68;60.97
13312;BME280;34033;48.672;9.376;2023-03-01T02:50:19;99189.41;;;2.69;61.01
13312;BME280;34033;48.672;9.376;2023-03-01T02:55:28;99182.91;;;2.73;61.92
13312;BME280;34033;48.672;9.376;2023-03-01T02:57:55;99190.38;;;2.73;61.23
13312;BME280;34033;48.672;9.376;2023-03-01T03:00:24;99197.53;;;2.74;61.20
13312;BME280;34033;48.672;9.376;2023-03-01T03:02:53;99182.91;;;2.73;61.32
13312;BME280;34033;48.672;9.376;2023-03-01T03:05:21;99184.03;;;2.72;62.38
13312;BME280;34033;48.672;9.376;2023-03-01T03:07:48;99172.69;;;2.74;62.56
13312;BME280;34033;48.672;9.376;2023-03-01T03:10:17;99175.13;;;2.75;62.50
13312;BME280;34033;48.672;9.376;2023-03-01T03:12:48;99174.31;;;2.75;62.69
13312;BME280;34033;48.672;9.376;2023-03-01T03:15:13;99164.88;;;2.76;61.90
13312;BME280;34033;48.672;9.376;2023-03-01T03:17:41;99172.22;;;2.80;62.68
13312;BME280;34033;48.672;9.376;2023-03-01T03:20:08;99171.41;;;2.80;62.71
13312;BME280;34033;48.672;9.376;2023-03-01T03:22:39;99163.13;;;2.80;61.88
13312;BME280;34033;48.672;9.376;2023-03-01T03:25:06;99162.16;;;2.84;61.61
13312;BME280;34033;48.672;9.376;2023-03-01T03:27:39;99157.25;;;2.81;62.08
13312;BME280;34033;48.672;9.376;2023-03-01T03:30:06;99167.50;;;2.81;62.26
13312;BME280;34033;48.672;9.376;2023-03-01T03:32:35;99152.22;;;2.83;62.84
13312;BME280;34033;48.672;9.376;2023-03-01T03:35:01;99156.63;;;2.84;62.50
13312;BME280;34033;48.672;9.376;2023-03-01T03:37:26;99162.81;;;2.90;61.93
13312;BME280;34033;48.672;9.376;2023-03-01T03:40:10;99160.88;;;2.90;62.02
13312;BME280;34033;48.672;9.376;2023-03-01T03:42:40;99158.41;;;2.89;61.57
13312;BME280;34033;48.672;9.376;2023-03-01T03:45:06;99160.66;;;2.78;61.48
13312;BME280;34033;48.672;9.376;2023-03-01T03:47:31;99157.13;;;2.86;62.84
13312;BME280;34033;48.672;9.376;2023-03-01T03:49:57;99163.31;;;2.92;61.93
13312;BME280;34033;48.672;9.376;2023-03-01T03:52:22;99149.34;;;2.97;62.60
13312;BME280;34033;48.672;9.376;2023-03-01T03:54:47;99153.06;;;3.01;62.60
13312;BME280;34033;48.672;9.376;2023-03-01T03:57:13;99154.03;;;3.05;61.53
13312;BME280;34033;48.672;9.376;2023-03-01T03:59:38;99138.44;;;3.09;62.05
13312;BME280;34033;48.672;9.376;2023-03-01T04:02:03;99149.66;;;3.04;61.12
13312;BME280;34033;48.672;9.376;2023-03-01T04:04:29;99146.56;;;3.06;61.32
13312;BME280;34033;48.672;9.376;2023-03-01T04:06:54;99149.84;;;3.08;60.98
13312;BME280;34033;48.672;9.376;2023-03-01T04:09:19;99132.91;;;3.09;60.71
13312;BME280;34033;48.672;9.376;2023-03-01T04:11:45;99137.97;;;3.07;61.51
13312;BME280;34033;48.672;9.376;2023-03-01T04:14:10;99128.03;;;3.49;73.68
13312;BME280;34033;48.672;9.376;2023-03-01T04:16:35;99127.22;;;3.49;63.27
13312;BME280;34033;48.672;9.376;2023-03-01T04:19:00;99123.31;;;3.50;62.35
13312;BME280;34033;48.672;9.376;2023-03-01T04:21:26;99126.41;;;3.48;61.77
13312;BME280;34033;48.672;9.376;2023-03-01T04:23:51;99127.56;;;3.47;61.40
13312;BME280;34033;48.672;9.376;2023-03-01T04:26:18;99126.25;;;3.45;61.22
13312;BME280;34033;48.672;9.376;2023-03-01T04:28:43;99126.25;;;3.45;60.79
13312;BME280;34033;48.672;9.376;2023-03-01T04:31:13;99123.97;;;3.47;60.84
13312;BME280;34033;48.672;9.376;2023-03-01T04:33:46;99125.13;;;3.46;61.49
13312;BME280;34033;48.672;9.376;2023-03-01T04:36:13;99123.16;;;3.46;60.58
13312;BME280;34033;48.672;9.376;2023-03-01T04:38:40;99116.97;;;3.49;60.07
13312;BME280;34033;48.672;9.376;2023-03-01T04:41:08;99121.69;;;3.49;59.14
13312;BME280;34033;48.672;9.376;2023-03-01T04:43:34;99118.59;;;3.50;59.60
13312;BME280;34033;48.672;9.376;2023-03-01T04:46:02;99112.25;;;3.50;59.48
13312;BME280;34033;48.672;9.376;2023-03-01T04:48:28;99119.41;;;3.51;59.28
13312;BME280;34033;48.672;9.376;2023-03-01T04:50:53;99114.69;;;3.51;59.52
13312;BME280;34033;48.672;9.376;2023-03-01T04:53:19;99117.78;;;3.50;59.08
13312;BME280;34033;48.672;9.376;2023-03-01T04:55:44;99119.41;;;3.51;59.18
13312;BME280;34033;48.672;9.376;2023-03-01T04:58:09;99124.94;;;3.51;59.22
13312;BME280;34033;48.672;9.376;2023-03-01T05:00:34;99120.22;;;3.51;58.58
13312;BME280;34033;48.672;9.376;2023-03-01T05:03:00;99120.06;;;3.48;58.94
13312;BME280;34033;48.672;9.376;2023-03-01T05:05:29;99109.66;;;3.45;59.12
13312;BME280;34033;48.672;9.376;2023-03-01T05:07:58;99115.69;;;3.38;60.01
13312;BME280;34033;48.672;9.376;2023-03-01T05:10:24;99118.06;;;3.65;62.47
13312;BME280;34033;48.672;9.376;2023-03-01T05:12:50;99115.41;;;3.86;61.68
13312;BME280;34033;48.672;9.376;2023-03-01T05:15:17;99101.78;;;4.19;63.01
13312;BME280;34033;48.672;9.376;2023-03-01T05:17:43;99106.63;;;4.60;59.62
13312;BME280;34033;48.672;9.376;2023-03-01T05:20:09;99110.03;;;4.86;58.99
13312;BME280;34033;48.672;9.376;2023-03-01T05:22:35;99104.78;;;4.93;55.87
13312;BME280;34033;48.672;9.376;2023-03-01T05:25:01;99109.84;;;4.91;56.21
13312;BME280;34033;48.672;9.376;2023-03-01T05:27:27;99108.56;;;4.89;55.44
13312;BME280;34033;48.672;9.376;2023-03-01T05:29:52;99105.63;;;4.85;55.67
13312;BME280;34033;48.672;9.376;2023-03-01T05:32:17;99100.47;;;4.84;56.18
13312;BME280;34033;48.672;9.376;2023-03-01T05:34:43;99110.53;;;4.88;56.06
13312;BME280;34033;48.672;9.376;2023-03-01T05:37:09;99104.78;;;4.93;55.18
13312;BME280;34033;48.672;9.376;2023-03-01T05:39:34;99112.91;;;4.98;56.54
13312;BME280;34033;48.672;9.376;2023-03-01T05:42:00;99102.38;;;5.13;57.62
13312;BME280;34033;48.672;9.376;2023-03-01T05:44:27;99108.03;;;5.16;56.77
13312;BME280;34033;48.672;9.376;2023-03-01T05:46:53;99104.72;;;5.23;56.54
13312;BME280;34033;48.672;9.376;2023-03-01T05:49:18;99097.63;;;5.34;56.80
13312;BME280;34033;48.672;9.376;2023-03-01T05:51:48;99090.88;;;5.35;55.19
13312;BME280;34033;48.672;9.376;2023-03-01T05:54:15;99099.09;;;5.31;54.76
13312;BME280;34033;48.672;9.376;2023-03-01T05:56:41;99105.31;;;5.28;54.85
13312;BME280;34033;48.672;9.376;2023-03-01T05:59:06;99098.16;;;5.27;55.26
13312;BME280;34033;48.672;9.376;2023-03-01T06:01:33;99098.00;;;5.24;54.64
13312;BME280;34033;48.672;9.376;2023-03-01T06:03:59;99106.69;;;5.22;54.63
13312;BME280;34033;48.672;9.376;2023-03-01T06:06:24;99106.69;;;5.22;54.73
13312;BME280;34033;48.672;9.376;2023-03-01T06:08:50;99095.22;;;5.24;55.15
13312;BME280;34033;48.672;9.376;2023-03-01T06:11:16;99092.47;;;5.24;55.39
13312;BME280;34033;48.672;9.376;2023-03-01T06:13:43;99098.59;;;5.29;54.77
13312;BME280;34033;48.672;9.376;2023-03-01T06:16:08;99100.59;;;5.29;55.23
13312;BME280;34033;48.672;9.376;2023-03-01T06:18:34;99099.91;;;5.32;54.41
13312;BME280;34033;48.672;9.376;2023-03-01T06:21:00;99094.34;;;5.32;55.04
13312;BME280;34033;48.672;9.376;2023-03-01T06:23:25;99100.22;;;5.30;55.12
13312;BME280;34033;48.672;9.376;2023-03-01T06:25:51;99094.25;;;5.28;55.65
13312;BME280;34033;48.672;9.376;2023-03-01T06:28:17;99092.72;;;5.31;55.12
13312;BME280;34033;48.672;9.376;2023-03-01T06:30:42;99099.41;;;5.30;55.08
13312;BME280;34033;48.672;9.376;2023-03-01T06:33:08;99096.19;;;5.28;54.72
13312;BME280;34033;48.672;9.376;2023-03-01T06:35:33;99096.53;;;5.26;54.68
13312;BME280;34033;48.672;9.376;2023-03-01T06:38:00;99092.66;;;5.19;54.90
13312;BME280;34033;48.672;9.376;2023-03-01T06:40:26;99092.22;;;5.17;54.75
13312;BME280;34033;48.672;9.376;2023-03-01T06:42:52;99103.31;;;5.17;55.24
13312;BME280;34033;48.672;9.376;2023-03-01T06:45:18;99100.84;;;5.15;54.35
13312;BME280;34033;48.672;9.376;2023-03-01T06:47:44;99110.47;;;5.18;55.78
13312;BME280;34033;48.672;9.376;2023-03-01T06:50:10;99104.50;;;5.28;55.56
13312;BME280;34033;48.672;9.376;2023-03-01T06:52:37;99100.03;;;5.35;54.78
13312;BME280;34033;48.672;9.376;2023-03-01T06:55:03;99100.84;;;5.36;54.83
13312;BME280;34033;48.672;9.376;2023-03-01T06:57:28;99097.03;;;5.61;55.90
13312;BME280;34033;48.672;9.376;2023-03-01T06:59:54;99099.34;;;5.71;54.92
13312;BME280;34033;48.672;9.376;2023-03-01T07:02:19;99095.22;;;5.77;54.32
13312;BME280;34033;48.672;9.376;2023-03-01T07:04:44;99092.78;;;5.76;53.65
13312;BME280;34033;48.672;9.376;2023-03-01T07:07:10;99095.88;;;5.74;54.46
13312;BME280;34033;48.672;9.376;2023-03-01T07:09:36;99100.06;;;5.80;54.32
13312;BME280;34033;48.672;9.376;2023-03-01T07:12:01;99098.91;;;5.81;52.61
13312;BME280;34033;48.672;9.376;2023-03-01T07:14:27;99092.66;;;5.84;53.53
13312;BME280;34033;48.672;9.376;2023-03-01T07:16:53;99090.44;;;5.99;55.17
13312;BME280;34033;48.672;9.376;2023-03-01T07:19:19;99089.75;;;6.14;55.56
13312;BME280;34033;48.672;9.376;2023-03-01T07:21:44;99082.25;;;6.39;55.66
13312;BME280;34033;48.672;9.376;2023-03-01T07:24:09;99074.94;;;6.58;54.73
13312;BME280;34033;48.672;9.376;2023-03-01T07:26:36;99074.56;;;6.84;53.47
13312;BME280;34033;48.672;9.376;2023-03-01T07:29:03;99074.22;;;6.86;52.29
13312;BME280;34033;48.672;9.376;2023-03-01T07:31:29;99066.66;;;6.98;53.15
13312;BME280;34033;48.672;9.376;2023-03-01T07:33:55;99075.06;;;7.14;52.06
13312;BME280;34033;48.672;9.376;2023-03-01T07:36:21;99075.28;;;7.21;51.99
13312;BME280;34033;48.672;9.376;2023-03-01T07:38:46;99073.66;;;7.20;52.25
13312;BME280;34033;48.672;9.376;2023-03-01T07:41:12;99067.75;;;7.22;52.18
13312;BME280;34033;48.672;9.376;2023-03-01T07:43:37;99065.16;;;7.29;51.65
13312;BME280;34033;48.672;9.376;2023-03-01T07:46:03;99051.91;;;7.10;51.28
13312;BME280;34033;48.672;9.376;2023-03-01T07:48:29;99053.88;;;6.69;50.91
13312;BME280;34033;48.672;9.376;2023-03-01T07:51:01;99047.47;;;6.81;52.40
13312;BME280;34033;48.672;9.376;2023-03-01T07:53:27;99050.59;;;6.80;51.71
13312;BME280;34033;48.672;9.376;2023-03-01T07:56:07;99043.84;;;6.93;52.27
13312;BME280;34033;48.672;9.376;2023-03-01T07:58:37;99038.75;;;6.95;50.91
13312;BME280;34033;48.672;9.376;2023-03-01T08:01:06;99052.00;;;7.13;51.48
13312;BME280;34033;48.672;9.376;2023-03-01T08:03:33;99042.72;;;7.22;50.26
13312;BME280;34033;48.672;9.376;2023-03-01T08:06:08;99044.63;;;7.33;50.87
13312;BME280;34033;48.672;9.376;2023-03-01T08:08:34;99041.75;;;7.30;50.05
13312;BME280;34033;48.672;9.376;2023-03-01T08:11:02;99038.88;;;7.26;50.25
13312;BME280;34033;48.672;9.376;2023-03-01T08:13:28;99041.28;;;7.28;50.17
13312;BME280;34033;48.672;9.376;2023-03-01T08:15:54;99043.97;;;7.24;50.45
13312;BME280;34033;48.672;9.376;2023-03-01T08:18:20;99045.94;;;7.24;51.22
13312;BME280;34033;48.672;9.376;2023-03-01T08:20:46;99040.84;;;7.26;50.28
13312;BME280;34033;48.672;9.376;2023-03-01T08:23:11;99036.75;;;7.35;49.98
13312;BME280;34033;48.672;9.376;2023-03-01T08:25:37;99038.84;;;7.38;50.15
13312;BME280;34033;48.672;9.376;2023-03-01T08:28:02;99030.47;;;7.38;50.10
13312;BME280;34033;48.672;9.376;2023-03-01T08:30:28;99030.13;;;7.55;50.00
13312;BME280;34033;48.672;9.376;2023-03-01T08:32:53;99029.97;;;7.48;48.77
13312;BME280;34033;48.672;9.376;2023-03-01T08:35:19;99027.13;;;7.61;48.93
13312;BME280;34033;48.672;9.376;2023-03-01T08:37:45;99030.06;;;7.52;48.91
13312;BME280;34033;48.672;9.376;2023-03-01T08:40:11;99027.91;;;7.61;49.03
13312;BME280;34033;48.672;9.376;2023-03-01T08:42:39;99026.09;;;7.53;48.47
13312;BME280;34033;48.672;9.376;2023-03-01T08:45:05;99019.22;;;7.63;48.74
13312;BME280;34033;48.672;9.376;2023-03-01T08:47:30;99023.78;;;7.55;48.80
13312;BME280;34033;48.672;9.376;2023-03-01T08:49:55;99008.72;;;7.28;47.93
13312;BME280;34033;48.672;9.376;2023-03-01T08:52:21;99021.69;;;7.08;47.22
13312;BME280;34033;48.672;9.376;2023-03-01T08:54:49;99019.16;;;7.31;49.10
13312;BME280;34033;48.672;9.376;2023-03-01T08:57:15;99019.91;;;7.44;47.77
13312;BME280;34033;48.672;9.376;2023-03-01T08:59:40;99013.91;;;7.58;47.64
13312;BME280;34033;48.672;9.376;2023-03-01T09:02:11;99019.94;;;7.60;47.71
13312;BME280;34033;48.672;9.376;2023-03-01T09:04:37;99013.09;;;7.13;48.91
13312;BME280;34033;48.672;9.376;2023-03-01T09:07:03;99007.72;;;7.21;48.25
13312;BME280;34033;48.672;9.376;2023-03-01T09:09:29;99000.38;;;7.28;47.36
13312;BME280;34033;48.672;9.376;2023-03-01T09:11:54;98999.41;;;7.36;48.03
13312;BME280;34033;48.672;9.376;2023-03-01T09:14:19;98996.69;;;7.24;46.04
13312;BME280;34033;48.672;9.376;2023-03-01T09:16:45;98990.53;;;7.03;47.72
13312;BME280;34033;48.672;9.376;2023-03-01T09:19:11;98990.28;;;7.08;47.96
13312;BME280;34033;48.672;9.376;2023-03-01T09:21:37;98992.03;;;7.28;48.26
13312;BME280;34033;48.672;9.376;2023-03-01T09:24:02;98986.75;;;7.39;47.72
13312;BME280;34033;48.672;9.376;2023-03-01T09:26:27;98986.09;;;7.58;47.82
13312;BME280;34033;48.672;9.376;2023-03-01T09:28:55;98983.16;;;7.82;47.28
13312;BME280;34033;48.672;9.376;2023-03-01T09:31:22;98982.50;;;7.88;45.29
13312;BME280;34033;48.672;9.376;2023-03-01T09:33:49;98976.22;;;8.07;47.33
13312;BME280;34033;48.672;9.376;2023-03-01T09:36:17;98977.09;;;8.11;46.39
13312;BME280;34033;48.672;9.376;2023-03-01T09:38:43;98974.13;;;8.20;45.22
13312;BME280;34033;48.672;9.376;2023-03-01T09:41:11;98979.06;;;8.26;46.46
13312;BME280;34033;48.672;9.376;2023-03-01T09:43:52;98968.72;;;8.43;44.39
13312;BME280;34033;48.672;9.376;2023-03-01T09:46:22;98968.16;;;8.53;45.31
13312;BME280;34033;48.672;9.376;2023-03-01T09:48:52;98961.38;;;8.34;43.36
13312;BME280;34033;48.672;9.376;2023-03-01T09:51:31;98963.69;;;8.32;45.35
13312;BME280;34033;48.672;9.376;2023-03-01T09:53:57;98966.97;;;8.03;46.53
13312;BME280;34033;48.672;9.376;2023-03-01T09:56:46;98950.59;;;8.17;46.88
13312;BME280;34033;48.672;9.376;2023-03-01T09:59:30;98950.69;;;8.21;45.13
13312;BME280;34033;48.672;9.376;2023-03-01T10:02:16;98942.81;;;7.91;45.83
13312;BME280;34033;48.672;9.376;2023-03-01T10:04:51;98952.34;;;7.75;46.68
13312;BME280;34033;48.672;9.376;2023-03-01T10:10:05;98943.09;;;7.86;46.40
13312;BME280;34033;48.672;9.376;2023-03-01T10:12:38;98939.13;;;8.03;46.49
13312;BME280;34033;48.672;9.376;2023-03-01T10:17:41;98930.44;;;8.40;45.82
13312;BME280;34033;48.672;9.376;2023-03-01T10:20:23;98926.47;;;8.41;45.44
13312;BME280;34033;48.672;9.376;2023-03-01T10:22:50;98921.88;;;8.48;44.75
13312;BME280;34033;48.672;9.376;2023-03-01T10:28:31;98916.97;;;8.80;45.30
13312;BME280;34033;48.672;9.376;2023-03-01T10:31:00;98912.47;;;8.95;44.56
13312;BME280;34033;48.672;9.376;2023-03-01T10:33:28;98913.13;;;8.88;44.07
13312;BME280;34033;48.672;9.376;2023-03-01T10:35:54;98911.16;;;8.89;45.26
13312;BME280;34033;48.672;9.376;2023-03-01T10:38:20;98914.53;;;8.78;43.37
13312;BME280;34033;48.672;9.376;2023-03-01T10:40:57;98915.81;;;8.81;45.15
13312;BME280;34033;48.672;9.376;2023-03-01T10:43:24;98907.97;;;8.87;45.23
13312;BME280;34033;48.672;9.376;2023-03-01T10:45:50;98907.59;;;8.69;44.29
13312;BME280;34033;48.672;9.376;2023-03-01T10:48:20;98896.19;;;8.77;43.05
13312;BME280;34033;48.672;9.376;2023-03-01T10:50:51;98894.13;;;8.94;43.98
13312;BME280;34033;48.672;9.376;2023-03-01T10:56:11;98892.81;;;9.07;44.84
13312;BME280;34033;48.672;9.376;2023-03-01T10:58:40;98890.25;;;8.98;44.11
13312;BME280;34033;48.672;9.376;2023-03-01T11:03:40;98870.97;;;9.32;44.40
13312;BME280;34033;48.672;9.376;2023-03-01T11:08:44;98867.78;;;9.33;42.50
13312;BME280;34033;48.672;9.376;2023-03-01T11:11:18;98869.25;;;9.50;43.55
13312;BME280;34033;48.672;9.376;2023-03-01T11:16:25;98853.81;;;9.56;42.99
13312;BME280;34033;48.672;9.376;2023-03-01T11:19:04;98851.28;;;9.70;42.52
13312;BME280;34033;48.672;9.376;2023-03-01T11:21:33;98840.63;;;9.79;42.75
13312;BME280;34033;48.672;9.376;2023-03-01T11:24:01;98843.06;;;9.81;41.20
13312;BME280;34033;48.672;9.376;2023-03-01T11:26:28;98833.56;;;9.85;42.32
13312;BME280;34033;48.672;9.376;2023-03-01T11:28:57;98831.50;;;9.82;41.67
13312;BME280;34033;48.672;9.376;2023-03-01T11:31:24;98825.16;;;9.85;42.46
13312;BME280;34033;48.672;9.376;2023-03-01T11:34:00;98820.91;;;9.95;42.61
13312;BME280;34033;48.672;9.376;2023-03-01T11:39:10;98813.13;;;10.08;42.17
13312;BME280;34033;48.672;9.376;2023-03-01T11:41:40;98810.59;;;10.25;42.57
13312;BME280;34033;48.672;9.376;2023-03-01T11:44:25;98807.28;;;10.46;42.34
13312;BME280;34033;48.672;9.376;2023-03-01T11:53:07;98801.31;;;10.84;41.51
13312;BME280;34033;48.672;9.376;2023-03-01T12:07:32;98769.44;;;10.56;40.92
13312;BME280;34033;48.672;9.376;2023-03-01T12:40:03;98709.25;;;11.67;39.62
13312;BME280;34033;48.672;9.376;2023-03-01T12:48:11;98698.63;;;11.36;39.87
13312;BME280;34033;48.672;9.376;2023-03-01T12:50:52;98688.34;;;11.54;39.88
13312;BME280;34033;48.672;9.376;2023-03-01T12:53:34;98682.81;;;11.65;39.60
13312;BME280;34033;48.672;9.376;2023-03-01T12:56:04;98679.72;;;11.81;39.42
13312;BME280;34033;48.672;9.376;2023-03-01T12:59:01;98676.16;;;11.87;39.37
13312;BME280;34033;48.672;9.376;2023-03-01T13:04:44;98666.66;;;12.17;39.89
13312;BME280;34033;48.672;9.376;2023-03-01T13:07:36;98666.25;;;12.15;39.62
13312;BME280;34033;48.672;9.376;2023-03-01T13:17:48;98663.56;;;12.68;39.04
13312;BME280;34033;48.672;9.376;2023-03-01T13:20:20;98670.34;;;12.52;38.89
13312;BME280;34033;48.672;9.376;2023-03-01T13:22:47;98664.72;;;12.38;38.42
13312;BME280;34033;48.672;9.376;2023-03-01T13:25:14;98673.53;;;12.37;40.05
13312;BME280;34033;48.672;9.376;2023-03-01T13:27:40;98662.31;;;12.33;38.55
13312;BME280;34033;48.672;9.376;2023-03-01T13:30:47;98659.41;;;12.08;38.95
13312;BME280;34033;48.672;9.376;2023-03-01T13:35:48;98648.22;;;12.01;38.48
13312;BME280;34033;48.672;9.376;2023-03-01T13:41:07;98661.38;;;11.90;39.63
13312;BME280;34033;48.672;9.376;2023-03-01T13:43:35;98660.66;;;12.11;39.97
13312;BME280;34033;48.672;9.376;2023-03-01T13:46:16;98649.91;;;12.34;39.13
13312;BME280;34033;48.672;9.376;2023-03-01T13:48:45;98643.13;;;12.49;38.36
13312;BME280;34033;48.672;9.376;2023-03-01T13:51:13;98642.75;;;12.72;38.48
13312;BME280;34033;48.672;9.376;2023-03-01T13:53:44;98648.75;;;12.92;38.97
13312;BME280;34033;48.672;9.376;2023-03-01T13:56:16;98628.69;;;13.11;38.11
13312;BME280;34033;48.672;9.376;2023-03-01T14:03:51;98620.63;;;13.56;36.63
13312;BME280;34033;48.672;9.376;2023-03-01T14:06:21;98618.16;;;13.65;37.37
13312;BME280;34033;48.672;9.376;2023-03-01T14:08:49;98624.22;;;13.46;37.11
13312;BME280;34033;48.672;9.376;2023-03-01T14:19:35;98646.69;;;13.60;38.05
13312;BME280;34033;48.672;9.376;2023-03-01T14:22:25;98640.22;;;13.70;37.14
13312;BME280;34033;48.672;9.376;2023-03-01T14:24:57;98635.72;;;13.94;37.60
13312;BME280;34033;48.672;9.376;2023-03-01T14:27:26;98646.84;;;14.11;37.19
13312;BME280;34033;48.672;9.376;2023-03-01T14:29:57;98644.41;;;14.28;40.26
13312;BME280;34033;48.672;9.376;2023-03-01T14:32:31;98644.09;;;14.74;42.41
13312;BME280;34033;48.672;9.376;2023-03-01T14:34:58;98631.16;;;14.83;40.75
13312;BME280;34033;48.672;9.376;2023-03-01T14:37:29;98651.41;;;14.64;36.01
13312;BME280;34033;48.672;9.376;2023-03-01T14:39:57;98655.34;;;14.77;37.99
13312;BME280;34033;48.672;9.376;2023-03-01T14:42:25;98662.50;;;14.85;35.81
13312;BME280;34033;48.672;9.376;2023-03-01T14:44:54;98647.28;;;14.79;34.30
13312;BME280;34033;48.672;9.376;2023-03-01T14:47:31;98651.22;;;14.89;34.50
13312;BME280;34033;48.672;9.376;2023-03-01T14:52:30;98652.56;;;13.97;35.23
13312;BME280;34033;48.672;9.376;2023-03-01T14:54:59;98654.97;;;13.95;35.32
13312;BME280;34033;48.672;9.376;2023-03-01T14:57:26;98656.16;;;14.01;35.75
13312;BME280;34033;48.672;9.376;2023-03-01T14:59:53;98646.19;;;13.86;35.20
13312;BME280;34033;48.672;9.376;2023-03-01T15:02:22;98649.78;;;13.94;35.74
13312;BME280;34033;48.672;9.376;2023-03-01T15:04:52;98638.78;;;14.20;43.81
13312;BME280;34033;48.672;9.376;2023-03-01T15:07:19;98652.53;;;14.01;34.90
13312;BME280;34033;48.672;9.376;2023-03-01T15:09:45;98648.09;;;14.07;35.37
13312;BME280;34033;48.672;9.376;2023-03-01T15:15:06;98644.97;;;13.87;37.88
13312;BME280;34033;48.672;9.376;2023-03-01T15:17:44;98646.16;;;13.90;37.26
13312;BME280;34033;48.672;9.376;2023-03-01T15:20:18;98634.13;;;13.86;36.47